sensor_id;sensor_type;location;lat;lon;timestamp;P1;durP1;ratioP1;P2;durP2;ratioP2
1024;SDS011;501;48.214;11.350;2024-02-04T00:02:14;4.93;;;4.50;;
1024;SDS011;501;48.214;11.350;2024-02-04T00:04:40;4.60;;;4.17;;
1024;SDS011;501;48.214;11.350;2024-02-04T00:07:06;3.63;;;3.33;;
1024;SDS011;501;48.214;11.350;2024-02-04T00:09:31;6.43;;;4.03;;
1024;SDS011;501;48.214;11.350;2024-02-04T00:11:57;4.67;;;4.07;;
1024;SDS011;501;48.214;11.350;2024-02-04T00:14:23;6.10;;;4.00;;
1024;SDS011;501;48.214;11.350;2024-02-04T00:16:49;4.07;;;3.40;;
1024;SDS011;501;48.214;11.350;2024-02-04T00:19:15;4.73;;;4.30;;
1024;SDS011;501;48.214;11.350;2024-02-04T00:21:40;4.83;;;4.37;;
1024;SDS011;501;48.214;11.350;2024-02-04T00:24:06;4.37;;;4.03;;
1024;SDS011;501;48.214;11.350;2024-02-04T00:26:32;6.13;;;4.60;;
1024;SDS011;501;48.214;11.350;2024-02-04T00:28:57;4.37;;;3.90;;
1024;SDS011;501;48.214;11.350;2024-02-04T00:31:23;6.40;;;4.43;;
1024;SDS011;501;48.214;11.350;2024-02-04T00:33:49;4.90;;;4.40;;
1024;SDS011;501;48.214;11.350;2024-02-04T00:36:14;4.30;;;3.90;;
1024;SDS011;501;48.214;11.350;2024-02-04T00:38:40;4.27;;;3.70;;
1024;SDS011;501;48.214;11.350;2024-02-04T00:41:06;3.67;;;3.37;;
1024;SDS011;501;48.214;11.350;2024-02-04T00:43:31;4.17;;;3.80;;
1024;SDS011;501;48.214;11.350;2024-02-04T00:45:57;4.37;;;3.90;;
1024;SDS011;501;48.214;11.350;2024-02-04T00:48:25;4.80;;;4.40;;
1024;SDS011;501;48.214;11.350;2024-02-04T00:50:50;5.63;;;5.13;;
1024;SDS011;501;48.214;11.350;2024-02-04T00:53:16;5.40;;;4.90;;
1024;SDS011;501;48.214;11.350;2024-02-04T00:55:42;7.70;;;5.57;;
1024;SDS011;501;48.214;11.350;2024-02-04T00:58:07;6.73;;;6.07;;
1024;SDS011;501;48.214;11.350;2024-02-04T01:00:33;7.17;;;6.47;;
1024;SDS011;501;48.214;11.350;2024-02-04T01:02:59;8.10;;;6.50;;
1024;SDS011;501;48.214;11.350;2024-02-04T01:05:24;8.97;;;6.70;;
1024;SDS011;501;48.214;11.350;2024-02-04T01:07:50;7.30;;;6.17;;
1024;SDS011;501;48.214;11.350;2024-02-04T01:10:15;5.87;;;5.23;;
1024;SDS011;501;48.214;11.350;2024-02-04T01:12:41;10.03;;;6.03;;
1024;SDS011;501;48.214;11.350;2024-02-04T01:15:07;7.43;;;5.43;;
1024;SDS011;501;48.214;11.350;2024-02-04T01:17:33;6.77;;;5.90;;
1024;SDS011;501;48.214;11.350;2024-02-04T01:19:59;5.70;;;5.10;;
1024;SDS011;501;48.214;11.350;2024-02-04T01:22:24;5.83;;;5.33;;
1024;SDS011;501;48.214;11.350;2024-02-04T01:24:52;8.23;;;6.43;;
1024;SDS011;501;48.214;11.350;2024-02-04T01:27:17;5.97;;;5.47;;
1024;SDS011;501;48.214;11.350;2024-02-04T01:29:43;8.47;;;6.30;;
1024;SDS011;501;48.214;11.350;2024-02-04T01:32:09;8.60;;;6.10;;
1024;SDS011;501;48.214;11.350;2024-02-04T01:34:34;6.43;;;5.83;;
1024;SDS011;501;48.214;11.350;2024-02-04T01:37:00;5.77;;;5.13;;
1024;SDS011;501;48.214;11.350;2024-02-04T01:39:26;6.40;;;5.80;;
1024;SDS011;501;48.214;11.350;2024-02-04T01:41:51;5.50;;;5.00;;
1024;SDS011;501;48.214;11.350;2024-02-04T01:44:17;5.60;;;5.10;;
1024;SDS011;501;48.214;11.350;2024-02-04T01:46:44;6.47;;;5.77;;
1024;SDS011;501;48.214;11.350;2024-02-04T01:49:10;5.40;;;4.90;;
1024;SDS011;501;48.214;11.350;2024-02-04T01:51:36;5.63;;;5.13;;
1024;SDS011;501;48.214;11.350;2024-02-04T01:54:02;6.60;;;5.77;;
1024;SDS011;501;48.214;11.350;2024-02-04T01:56:29;6.57;;;5.97;;
1024;SDS011;501;48.214;11.350;2024-02-04T01:58:55;5.63;;;5.13;;
1024;SDS011;501;48.214;11.350;2024-02-04T02:01:21;6.30;;;5.47;;
1024;SDS011;501;48.214;11.350;2024-02-04T02:03:48;5.50;;;5.00;;
1024;SDS011;501;48.214;11.350;2024-02-04T02:06:15;5.50;;;4.87;;
1024;SDS011;501;48.214;11.350;2024-02-04T02:08:41;5.83;;;5.23;;
1024;SDS011;501;48.214;11.350;2024-02-04T02:11:21;5.10;;;4.57;;
1024;SDS011;501;48.214;11.350;2024-02-04T02:14:00;4.83;;;4.43;;
1024;SDS011;501;48.214;11.350;2024-02-04T02:16:28;4.20;;;3.80;;
1024;SDS011;501;48.214;11.350;2024-02-04T02:19:01;4.50;;;3.93;;
1024;SDS011;501;48.214;11.350;2024-02-04T02:22:00;4.90;;;4.50;;
1024;SDS011;501;48.214;11.350;2024-02-04T02:24:41;5.47;;;4.57;;
1024;SDS011;501;48.214;11.350;2024-02-04T02:27:08;6.47;;;4.80;;
1024;SDS011;501;48.214;11.350;2024-02-04T02:29:34;5.47;;;4.97;;
1024;SDS011;501;48.214;11.350;2024-02-04T02:32:00;5.53;;;4.50;;
1024;SDS011;501;48.214;11.350;2024-02-04T02:34:28;5.60;;;5.00;;
1024;SDS011;501;48.214;11.350;2024-02-04T02:37:08;4.87;;;4.40;;
1024;SDS011;501;48.214;11.350;2024-02-04T02:39:42;6.07;;;4.57;;
1024;SDS011;501;48.214;11.350;2024-02-04T02:42:13;6.00;;;4.73;;
1024;SDS011;501;48.214;11.350;2024-02-04T02:44:41;4.83;;;4.33;;
1024;SDS011;501;48.214;11.350;2024-02-04T02:47:08;5.73;;;4.20;;
1024;SDS011;501;48.214;11.350;2024-02-04T02:49:35;4.50;;;4.10;;
1024;SDS011;501;48.214;11.350;2024-02-04T02:52:02;4.33;;;3.77;;
1024;SDS011;501;48.214;11.350;2024-02-04T02:54:27;5.13;;;4.53;;
1024;SDS011;501;48.214;11.350;2024-02-04T02:56:53;4.40;;;4.00;;
1024;SDS011;501;48.214;11.350;2024-02-04T02:59:19;4.57;;;4.17;;
1024;SDS011;501;48.214;11.350;2024-02-04T03:01:44;4.97;;;4.40;;
1024;SDS011;501;48.214;11.350;2024-02-04T03:04:10;4.70;;;4.30;;
1024;SDS011;501;48.214;11.350;2024-02-04T03:06:35;4.70;;;4.20;;
1024;SDS011;501;48.214;11.350;2024-02-04T03:09:01;5.53;;;4.60;;
1024;SDS011;501;48.214;11.350;2024-02-04T03:11:27;4.10;;;3.70;;
1024;SDS011;501;48.214;11.350;2024-02-04T03:13:52;6.17;;;5.10;;
1024;SDS011;501;48.214;11.350;2024-02-04T03:16:18;5.43;;;4.33;;
1024;SDS011;501;48.214;11.350;2024-02-04T03:18:45;5.80;;;5.23;;
1024;SDS011;501;48.214;11.350;2024-02-04T03:21:17;5.47;;;4.77;;
1024;SDS011;501;48.214;11.350;2024-02-04T03:23:43;6.63;;;5.43;;
1024;SDS011;501;48.214;11.350;2024-02-04T03:26:09;5.10;;;4.60;;
1024;SDS011;501;48.214;11.350;2024-02-04T03:28:39;5.27;;;4.77;;
1024;SDS011;501;48.214;11.350;2024-02-04T03:31:05;4.93;;;4.43;;
1024;SDS011;501;48.214;11.350;2024-02-04T03:33:30;7.00;;;5.60;;
1024;SDS011;501;48.214;11.350;2024-02-04T03:35:56;5.80;;;5.00;;
1024;SDS011;501;48.214;11.350;2024-02-04T03:38:21;6.80;;;5.27;;
1024;SDS011;501;48.214;11.350;2024-02-04T03:40:47;6.27;;;5.50;;
1024;SDS011;501;48.214;11.350;2024-02-04T03:43:14;6.70;;;5.70;;
1024;SDS011;501;48.214;11.350;2024-02-04T03:45:40;6.90;;;6.20;;
1024;SDS011;501;48.214;11.350;2024-02-04T03:48:06;5.90;;;5.30;;
1024;SDS011;501;48.214;11.350;2024-02-04T03:50:32;6.87;;;5.57;;
1024;SDS011;501;48.214;11.350;2024-02-04T03:52:57;5.33;;;4.87;;
1024;SDS011;501;48.214;11.350;2024-02-04T03:55:23;5.87;;;5.27;;
1024;SDS011;501;48.214;11.350;2024-02-04T03:57:48;7.83;;;5.80;;
1024;SDS011;501;48.214;11.350;2024-02-04T04:00:14;5.97;;;5.37;;
1024;SDS011;501;48.214;11.350;2024-02-04T04:02:40;7.10;;;6.03;;
1024;SDS011;501;48.214;11.350;2024-02-04T04:05:10;6.10;;;5.50;;
1024;SDS011;501;48.214;11.350;2024-02-04T04:07:38;6.60;;;5.07;;
1024;SDS011;501;48.214;11.350;2024-02-04T04:10:04;6.23;;;4.77;;
1024;SDS011;501;48.214;11.350;2024-02-04T04:12:30;6.17;;;5.23;;
1024;SDS011;501;48.214;11.350;2024-02-04T04:14:56;5.80;;;4.90;;
1024;SDS011;501;48.214;11.350;2024-02-04T04:17:22;6.60;;;5.17;;
1024;SDS011;501;48.214;11.350;2024-02-04T04:19:47;6.80;;;5.50;;
1024;SDS011;501;48.214;11.350;2024-02-04T04:22:13;5.87;;;5.10;;
1024;SDS011;501;48.214;11.350;2024-02-04T04:24:39;6.70;;;4.97;;
1024;SDS011;501;48.214;11.350;2024-02-04T04:27:04;5.87;;;4.97;;
1024;SDS011;501;48.214;11.350;2024-02-04T04:29:30;5.40;;;4.87;;
1024;SDS011;501;48.214;11.350;2024-02-04T04:31:56;5.47;;;4.90;;
1024;SDS011;501;48.214;11.350;2024-02-04T04:34:21;5.83;;;4.87;;
1024;SDS011;501;48.214;11.350;2024-02-04T04:36:47;5.77;;;4.50;;
1024;SDS011;501;48.214;11.350;2024-02-04T04:39:13;5.60;;;5.10;;
1024;SDS011;501;48.214;11.350;2024-02-04T04:41:39;5.70;;;4.60;;
1024;SDS011;501;48.214;11.350;2024-02-04T04:44:06;4.13;;;3.73;;
1024;SDS011;501;48.214;11.350;2024-02-04T04:46:31;5.83;;;4.40;;
1024;SDS011;501;48.214;11.350;2024-02-04T04:48:57;4.53;;;4.13;;
1024;SDS011;501;48.214;11.350;2024-02-04T04:51:23;4.70;;;3.90;;
1024;SDS011;501;48.214;11.350;2024-02-04T04:53:49;4.73;;;4.23;;
1024;SDS011;501;48.214;11.350;2024-02-04T04:56:14;4.80;;;3.93;;
1024;SDS011;501;48.214;11.350;2024-02-04T04:58:40;7.20;;;4.80;;
1024;SDS011;501;48.214;11.350;2024-02-04T05:01:06;7.40;;;4.97;;
1024;SDS011;501;48.214;11.350;2024-02-04T05:03:31;5.77;;;4.20;;
1024;SDS011;501;48.214;11.350;2024-02-04T05:05:57;5.93;;;4.73;;
1024;SDS011;501;48.214;11.350;2024-02-04T05:08:23;6.47;;;4.00;;
1024;SDS011;501;48.214;11.350;2024-02-04T05:10:48;5.27;;;4.40;;
1024;SDS011;501;48.214;11.350;2024-02-04T05:13:14;5.07;;;4.13;;
1024;SDS011;501;48.214;11.350;2024-02-04T05:15:40;8.33;;;4.53;;
1024;SDS011;501;48.214;11.350;2024-02-04T05:18:05;3.80;;;3.50;;
1024;SDS011;501;48.214;11.350;2024-02-04T05:20:31;6.80;;;4.70;;
1024;SDS011;501;48.214;11.350;2024-02-04T05:22:57;8.93;;;4.13;;
1024;SDS011;501;48.214;11.350;2024-02-04T05:25:23;6.10;;;4.57;;
1024;SDS011;501;48.214;11.350;2024-02-04T05:27:50;4.90;;;3.70;;
1024;SDS011;501;48.214;11.350;2024-02-04T05:30:16;5.83;;;3.47;;
1024;SDS011;501;48.214;11.350;2024-02-04T05:32:41;4.87;;;4.03;;
1024;SDS011;501;48.214;11.350;2024-02-04T05:35:09;5.10;;;4.60;;
1024;SDS011;501;48.214;11.350;2024-02-04T05:37:35;5.90;;;4.83;;
1024;SDS011;501;48.214;11.350;2024-02-04T05:40:01;4.97;;;4.03;;
1024;SDS011;501;48.214;11.350;2024-02-04T05:42:27;4.80;;;4.30;;
1024;SDS011;501;48.214;11.350;2024-02-04T05:44:53;5.23;;;4.50;;
1024;SDS011;501;48.214;11.350;2024-02-04T05:47:18;5.47;;;4.33;;
1024;SDS011;501;48.214;11.350;2024-02-04T05:49:44;5.80;;;4.30;;
1024;SDS011;501;48.214;11.350;2024-02-04T05:52:11;5.30;;;4.70;;
1024;SDS011;501;48.214;11.350;2024-02-04T05:54:37;6.37;;;3.87;;
1024;SDS011;501;48.214;11.350;2024-02-04T05:57:06;6.57;;;5.00;;
1024;SDS011;501;48.214;11.350;2024-02-04T05:59:33;6.00;;;4.47;;
1024;SDS011;501;48.214;11.350;2024-02-04T06:01:59;7.23;;;5.00;;
1024;SDS011;501;48.214;11.350;2024-02-04T06:04:25;5.97;;;5.03;;
1024;SDS011;501;48.214;11.350;2024-02-04T06:06:50;6.40;;;4.50;;
1024;SDS011;501;48.214;11.350;2024-02-04T06:09:19;8.67;;;5.57;;
1024;SDS011;501;48.214;11.350;2024-02-04T06:11:45;7.20;;;5.50;;
1024;SDS011;501;48.214;11.350;2024-02-04T06:14:11;7.13;;;6.00;;
1024;SDS011;501;48.214;11.350;2024-02-04T06:16:37;8.90;;;6.47;;
1024;SDS011;501;48.214;11.350;2024-02-04T06:19:03;7.50;;;5.50;;
1024;SDS011;501;48.214;11.350;2024-02-04T06:21:28;6.27;;;5.47;;
1024;SDS011;501;48.214;11.350;2024-02-04T06:23:54;6.77;;;6.10;;
1024;SDS011;501;48.214;11.350;2024-02-04T06:26:20;8.37;;;5.70;;
1024;SDS011;501;48.214;11.350;2024-02-04T06:28:45;7.20;;;5.70;;
1024;SDS011;501;48.214;11.350;2024-02-04T06:31:13;7.43;;;6.00;;
1024;SDS011;501;48.214;11.350;2024-02-04T06:33:39;6.20;;;5.23;;
1024;SDS011;501;48.214;11.350;2024-02-04T06:36:08;5.67;;;4.80;;
1024;SDS011;501;48.214;11.350;2024-02-04T06:38:35;7.20;;;4.63;;
1024;SDS011;501;48.214;11.350;2024-02-04T06:41:01;7.37;;;5.73;;
1024;SDS011;501;48.214;11.350;2024-02-04T06:43:26;7.73;;;5.70;;
1024;SDS011;501;48.214;11.350;2024-02-04T06:45:52;8.50;;;5.97;;
1024;SDS011;501;48.214;11.350;2024-02-04T06:48:21;6.00;;;5.40;;
1024;SDS011;501;48.214;11.350;2024-02-04T06:50:46;7.40;;;5.53;;
1024;SDS011;501;48.214;11.350;2024-02-04T06:53:13;7.50;;;4.90;;
1024;SDS011;501;48.214;11.350;2024-02-04T06:55:41;7.00;;;5.57;;
1024;SDS011;501;48.214;11.350;2024-02-04T06:58:07;6.57;;;4.97;;
1024;SDS011;501;48.214;11.350;2024-02-04T07:00:32;8.60;;;5.63;;
1024;SDS011;501;48.214;11.350;2024-02-04T07:02:58;7.20;;;5.83;;
1024;SDS011;501;48.214;11.350;2024-02-04T07:05:24;6.77;;;5.03;;
1024;SDS011;501;48.214;11.350;2024-02-04T07:07:50;5.87;;;5.27;;
1024;SDS011;501;48.214;11.350;2024-02-04T07:10:16;6.73;;;6.07;;
1024;SDS011;501;48.214;11.350;2024-02-04T07:12:42;9.80;;;5.90;;
1024;SDS011;501;48.214;11.350;2024-02-04T07:15:08;6.73;;;5.30;;
1024;SDS011;501;48.214;11.350;2024-02-04T07:17:34;8.20;;;6.07;;
1024;SDS011;501;48.214;11.350;2024-02-04T07:20:00;8.60;;;6.13;;
1024;SDS011;501;48.214;11.350;2024-02-04T07:22:30;9.00;;;5.70;;
1024;SDS011;501;48.214;11.350;2024-02-04T07:24:55;10.10;;;5.60;;
1024;SDS011;501;48.214;11.350;2024-02-04T07:27:21;7.27;;;5.03;;
1024;SDS011;501;48.214;11.350;2024-02-04T07:29:47;6.53;;;5.30;;
1024;SDS011;501;48.214;11.350;2024-02-04T07:32:13;7.57;;;5.00;;
1024;SDS011;501;48.214;11.350;2024-02-04T07:34:40;7.23;;;5.67;;
1024;SDS011;501;48.214;11.350;2024-02-04T07:37:05;7.00;;;4.80;;
1024;SDS011;501;48.214;11.350;2024-02-04T07:39:31;7.73;;;5.30;;
1024;SDS011;501;48.214;11.350;2024-02-04T07:41:57;6.63;;;4.93;;
1024;SDS011;501;48.214;11.350;2024-02-04T07:44:28;8.53;;;5.13;;
1024;SDS011;501;48.214;11.350;2024-02-04T07:46:54;8.10;;;5.47;;
1024;SDS011;501;48.214;11.350;2024-02-04T07:49:20;8.30;;;6.00;;
1024;SDS011;501;48.214;11.350;2024-02-04T07:51:46;5.70;;;5.17;;
1024;SDS011;501;48.214;11.350;2024-02-04T07:54:11;6.57;;;4.60;;
1024;SDS011;501;48.214;11.350;2024-02-04T07:56:37;5.73;;;4.47;;
1024;SDS011;501;48.214;11.350;2024-02-04T07:59:03;7.10;;;4.70;;
1024;SDS011;501;48.214;11.350;2024-02-04T08:01:29;4.93;;;4.10;;
1024;SDS011;501;48.214;11.350;2024-02-04T08:03:55;5.53;;;4.60;;
1024;SDS011;501;48.214;11.350;2024-02-04T08:06:21;6.73;;;5.07;;
1024;SDS011;501;48.214;11.350;2024-02-04T08:08:46;6.20;;;4.73;;
1024;SDS011;501;48.214;11.350;2024-02-04T08:11:15;5.60;;;4.90;;
1024;SDS011;501;48.214;11.350;2024-02-04T08:13:42;6.90;;;4.60;;
1024;SDS011;501;48.214;11.350;2024-02-04T08:16:08;6.60;;;4.30;;
1024;SDS011;501;48.214;11.350;2024-02-04T08:18:33;6.53;;;3.60;;
1024;SDS011;501;48.214;11.350;2024-02-04T08:20:59;4.70;;;3.67;;
1024;SDS011;501;48.214;11.350;2024-02-04T08:23:25;6.70;;;5.60;;
1024;SDS011;501;48.214;11.350;2024-02-04T08:25:50;6.40;;;3.83;;
1024;SDS011;501;48.214;11.350;2024-02-04T08:28:16;5.00;;;3.60;;
1024;SDS011;501;48.214;11.350;2024-02-04T08:30:42;4.30;;;3.50;;
1024;SDS011;501;48.214;11.350;2024-02-04T08:33:07;5.20;;;3.53;;
1024;SDS011;501;48.214;11.350;2024-02-04T08:35:33;6.20;;;2.80;;
1024;SDS011;501;48.214;11.350;2024-02-04T08:37:59;5.17;;;3.60;;
1024;SDS011;501;48.214;11.350;2024-02-04T08:40:25;7.10;;;3.13;;
1024;SDS011;501;48.214;11.350;2024-02-04T08:42:50;6.63;;;4.47;;
1024;SDS011;501;48.214;11.350;2024-02-04T08:45:16;8.73;;;3.80;;
1024;SDS011;501;48.214;11.350;2024-02-04T08:47:42;5.10;;;4.00;;
1024;SDS011;501;48.214;11.350;2024-02-04T08:50:07;4.60;;;3.30;;
1024;SDS011;501;48.214;11.350;2024-02-04T08:52:33;5.83;;;4.20;;
1024;SDS011;501;48.214;11.350;2024-02-04T08:54:59;5.63;;;3.80;;
1024;SDS011;501;48.214;11.350;2024-02-04T08:57:25;3.83;;;3.30;;
1024;SDS011;501;48.214;11.350;2024-02-04T08:59:50;6.27;;;3.47;;
1024;SDS011;501;48.214;11.350;2024-02-04T09:02:16;4.37;;;3.13;;
1024;SDS011;501;48.214;11.350;2024-02-04T09:04:42;4.90;;;3.23;;
1024;SDS011;501;48.214;11.350;2024-02-04T09:07:08;5.50;;;3.13;;
1024;SDS011;501;48.214;11.350;2024-02-04T09:09:34;3.80;;;2.60;;
1024;SDS011;501;48.214;11.350;2024-02-04T09:12:00;4.37;;;3.40;;
1024;SDS011;501;48.214;11.350;2024-02-04T09:14:26;7.90;;;3.30;;
1024;SDS011;501;48.214;11.350;2024-02-04T09:16:52;4.23;;;3.83;;
1024;SDS011;501;48.214;11.350;2024-02-04T09:19:18;6.20;;;3.10;;
1024;SDS011;501;48.214;11.350;2024-02-04T09:21:43;5.23;;;3.00;;
1024;SDS011;501;48.214;11.350;2024-02-04T09:24:09;4.43;;;3.00;;
1024;SDS011;501;48.214;11.350;2024-02-04T09:26:34;4.90;;;3.07;;
1024;SDS011;501;48.214;11.350;2024-02-04T09:29:00;5.20;;;3.07;;
1024;SDS011;501;48.214;11.350;2024-02-04T09:31:26;3.00;;;2.70;;
1024;SDS011;501;48.214;11.350;2024-02-04T09:33:53;4.87;;;4.20;;
1024;SDS011;501;48.214;11.350;2024-02-04T09:36:18;3.80;;;2.90;;
1024;SDS011;501;48.214;11.350;2024-02-04T09:38:46;3.70;;;3.30;;
1024;SDS011;501;48.214;11.350;2024-02-04T09:41:11;7.70;;;2.90;;
1024;SDS011;501;48.214;11.350;2024-02-04T09:43:37;5.30;;;3.60;;
1024;SDS011;501;48.214;11.350;2024-02-04T09:46:04;6.40;;;3.60;;
1024;SDS011;501;48.214;11.350;2024-02-04T09:48:31;4.27;;;3.30;;
1024;SDS011;501;48.214;11.350;2024-02-04T09:50:58;7.90;;;3.70;;
1024;SDS011;501;48.214;11.350;2024-02-04T09:53:31;5.63;;;3.67;;
1024;SDS011;501;48.214;11.350;2024-02-04T09:56:04;6.40;;;3.30;;
1024;SDS011;501;48.214;11.350;2024-02-04T09:58:33;5.83;;;3.20;;
1024;SDS011;501;48.214;11.350;2024-02-04T10:01:02;7.93;;;3.37;;
1024;SDS011;501;48.214;11.350;2024-02-04T10:03:33;7.43;;;4.13;;
1024;SDS011;501;48.214;11.350;2024-02-04T10:05:59;3.67;;;3.37;;
1024;SDS011;501;48.214;11.350;2024-02-04T10:08:25;8.10;;;3.77;;
1024;SDS011;501;48.214;11.350;2024-02-04T10:10:51;3.60;;;3.30;;
1024;SDS011;501;48.214;11.350;2024-02-04T10:13:16;5.17;;;3.80;;
1024;SDS011;501;48.214;11.350;2024-02-04T10:15:42;8.47;;;3.87;;
1024;SDS011;501;48.214;11.350;2024-02-04T10:18:08;5.20;;;3.50;;
1024;SDS011;501;48.214;11.350;2024-02-04T10:20:34;5.10;;;4.17;;
1024;SDS011;501;48.214;11.350;2024-02-04T10:23:00;5.87;;;3.80;;
1024;SDS011;501;48.214;11.350;2024-02-04T10:25:25;5.43;;;4.13;;
1024;SDS011;501;48.214;11.350;2024-02-04T10:27:52;4.93;;;3.10;;
1024;SDS011;501;48.214;11.350;2024-02-04T10:30:21;5.67;;;3.63;;
1024;SDS011;501;48.214;11.350;2024-02-04T10:32:50;3.70;;;3.40;;
1024;SDS011;501;48.214;11.350;2024-02-04T10:35:16;3.80;;;3.40;;
1024;SDS011;501;48.214;11.350;2024-02-04T10:37:45;4.63;;;3.20;;
1024;SDS011;501;48.214;11.350;2024-02-04T10:40:11;4.30;;;3.43;;
1024;SDS011;501;48.214;11.350;2024-02-04T10:42:37;5.83;;;2.80;;
1024;SDS011;501;48.214;11.350;2024-02-04T10:45:07;5.23;;;2.60;;
1024;SDS011;501;48.214;11.350;2024-02-04T10:47:36;4.70;;;2.47;;
1024;SDS011;501;48.214;11.350;2024-02-04T10:50:04;8.73;;;3.10;;
1024;SDS011;501;48.214;11.350;2024-02-04T10:52:33;5.13;;;2.90;;
1024;SDS011;501;48.214;11.350;2024-02-04T10:55:08;8.90;;;2.97;;
1024;SDS011;501;48.214;11.350;2024-02-04T10:57:35;2.60;;;2.27;;
1024;SDS011;501;48.214;11.350;2024-02-04T11:00:04;2.47;;;2.07;;
1024;SDS011;501;48.214;11.350;2024-02-04T11:02:34;3.13;;;2.10;;
1024;SDS011;501;48.214;11.350;2024-02-04T11:05:02;5.03;;;2.70;;
1024;SDS011;501;48.214;11.350;2024-02-04T11:07:32;3.70;;;2.23;;
1024;SDS011;501;48.214;11.350;2024-02-04T11:09:59;2.03;;;1.80;;
1024;SDS011;501;48.214;11.350;2024-02-04T11:12:25;2.67;;;1.70;;
1024;SDS011;501;48.214;11.350;2024-02-04T11:14:54;2.73;;;2.03;;
1024;SDS011;501;48.214;11.350;2024-02-04T11:20:31;1.63;;;1.53;;
1024;SDS011;501;48.214;11.350;2024-02-04T11:25:45;2.87;;;1.97;;
1024;SDS011;501;48.214;11.350;2024-02-04T11:28:16;3.37;;;2.43;;
1024;SDS011;501;48.214;11.350;2024-02-04T11:30:44;3.03;;;1.93;;
1024;SDS011;501;48.214;11.350;2024-02-04T11:33:10;4.40;;;2.97;;
1024;SDS011;501;48.214;11.350;2024-02-04T11:35:37;8.40;;;2.27;;
1024;SDS011;501;48.214;11.350;2024-02-04T11:38:03;3.13;;;1.70;;
1024;SDS011;501;48.214;11.350;2024-02-04T11:40:35;2.07;;;1.60;;
1024;SDS011;501;48.214;11.350;2024-02-04T11:43:05;5.47;;;1.70;;
1024;SDS011;501;48.214;11.350;2024-02-04T11:45:31;2.70;;;1.80;;
1024;SDS011;501;48.214;11.350;2024-02-04T11:48:01;3.50;;;1.50;;
1024;SDS011;501;48.214;11.350;2024-02-04T11:50:27;2.07;;;1.80;;
1024;SDS011;501;48.214;11.350;2024-02-04T11:55:36;1.60;;;1.50;;
1024;SDS011;501;48.214;11.350;2024-02-04T11:58:07;2.37;;;1.57;;
1024;SDS011;501;48.214;11.350;2024-02-04T12:00:34;3.80;;;2.20;;
1024;SDS011;501;48.214;11.350;2024-02-04T12:03:00;2.20;;;1.70;;
1024;SDS011;501;48.214;11.350;2024-02-04T12:05:27;3.20;;;2.03;;
1024;SDS011;501;48.214;11.350;2024-02-04T12:07:54;5.70;;;2.13;;
1024;SDS011;501;48.214;11.350;2024-02-04T12:10:19;3.37;;;1.83;;
1024;SDS011;501;48.214;11.350;2024-02-04T12:12:46;5.10;;;2.53;;
1024;SDS011;501;48.214;11.350;2024-02-04T12:15:11;2.63;;;1.40;;
1024;SDS011;501;48.214;11.350;2024-02-04T12:17:37;2.03;;;1.43;;
1024;SDS011;501;48.214;11.350;2024-02-04T12:20:03;4.03;;;1.80;;
1024;SDS011;501;48.214;11.350;2024-02-04T12:22:30;2.97;;;1.93;;
1024;SDS011;501;48.214;11.350;2024-02-04T12:24:57;2.83;;;1.70;;
1024;SDS011;501;48.214;11.350;2024-02-04T12:27:23;1.53;;;1.43;;
1024;SDS011;501;48.214;11.350;2024-02-04T12:29:51;2.87;;;2.20;;
1024;SDS011;501;48.214;11.350;2024-02-04T12:32:17;4.57;;;1.90;;
1024;SDS011;501;48.214;11.350;2024-02-04T12:34:47;2.97;;;2.30;;
1024;SDS011;501;48.214;11.350;2024-02-04T12:37:13;5.60;;;2.23;;
1024;SDS011;501;48.214;11.350;2024-02-04T12:39:39;3.80;;;2.33;;
1024;SDS011;501;48.214;11.350;2024-02-04T12:42:05;2.00;;;1.80;;
1024;SDS011;501;48.214;11.350;2024-02-04T12:44:30;3.50;;;1.90;;
1024;SDS011;501;48.214;11.350;2024-02-04T12:46:56;3.03;;;2.00;;
1024;SDS011;501;48.214;11.350;2024-02-04T12:49:22;1.90;;;1.70;;
1024;SDS011;501;48.214;11.350;2024-02-04T12:51:48;3.40;;;2.50;;
1024;SDS011;501;48.214;11.350;2024-02-04T12:54:17;5.97;;;3.40;;
1024;SDS011;501;48.214;11.350;2024-02-04T12:59:11;3.63;;;2.10;;
1024;SDS011;501;48.214;11.350;2024-02-04T13:01:40;1.90;;;1.63;;
1024;SDS011;501;48.214;11.350;2024-02-04T13:04:05;2.77;;;2.33;;
1024;SDS011;501;48.214;11.350;2024-02-04T13:06:31;3.93;;;2.07;;
1024;SDS011;501;48.214;11.350;2024-02-04T13:09:03;1.70;;;1.30;;
1024;SDS011;501;48.214;11.350;2024-02-04T13:11:31;2.30;;;1.97;;
1024;SDS011;501;48.214;11.350;2024-02-04T13:13:56;2.10;;;1.50;;
1024;SDS011;501;48.214;11.350;2024-02-04T13:16:22;5.53;;;3.00;;
1024;SDS011;501;48.214;11.350;2024-02-04T13:18:52;3.67;;;2.30;;
1024;SDS011;501;48.214;11.350;2024-02-04T13:21:18;3.30;;;2.83;;
1024;SDS011;501;48.214;11.350;2024-02-04T13:23:46;3.40;;;2.67;;
1024;SDS011;501;48.214;11.350;2024-02-04T13:26:13;2.93;;;2.27;;
1024;SDS011;501;48.214;11.350;2024-02-04T13:28:39;5.50;;;2.30;;
1024;SDS011;501;48.214;11.350;2024-02-04T13:31:05;7.40;;;2.70;;
1024;SDS011;501;48.214;11.350;2024-02-04T13:33:30;4.27;;;2.97;;
1024;SDS011;501;48.214;11.350;2024-02-04T13:35:56;2.80;;;2.43;;
1024;SDS011;501;48.214;11.350;2024-02-04T13:38:22;4.37;;;2.67;;
1024;SDS011;501;48.214;11.350;2024-02-04T13:40:48;4.13;;;2.43;;
1024;SDS011;501;48.214;11.350;2024-02-04T13:43:13;4.17;;;2.53;;
1024;SDS011;501;48.214;11.350;2024-02-04T13:45:39;3.47;;;2.40;;
1024;SDS011;501;48.214;11.350;2024-02-04T13:48:05;3.90;;;2.80;;
1024;SDS011;501;48.214;11.350;2024-02-04T13:50:31;3.57;;;2.63;;
1024;SDS011;501;48.214;11.350;2024-02-04T13:52:57;4.53;;;2.90;;
1024;SDS011;501;48.214;11.350;2024-02-04T13:55:23;2.50;;;1.57;;
1024;SDS011;501;48.214;11.350;2024-02-04T13:57:49;7.00;;;2.47;;
1024;SDS011;501;48.214;11.350;2024-02-04T14:00:15;5.23;;;2.30;;
1024;SDS011;501;48.214;11.350;2024-02-04T14:02:42;1.83;;;1.57;;
1024;SDS011;501;48.214;11.350;2024-02-04T14:05:08;2.33;;;1.60;;
1024;SDS011;501;48.214;11.350;2024-02-04T14:07:34;5.10;;;1.93;;
1024;SDS011;501;48.214;11.350;2024-02-04T14:10:00;4.47;;;1.40;;
1024;SDS011;501;48.214;11.350;2024-02-04T14:12:25;2.63;;;1.80;;
1024;SDS011;501;48.214;11.350;2024-02-04T14:14:51;5.60;;;2.10;;
1024;SDS011;501;48.214;11.350;2024-02-04T14:17:18;1.97;;;1.47;;
1024;SDS011;501;48.214;11.350;2024-02-04T14:19:44;3.07;;;1.50;;
1024;SDS011;501;48.214;11.350;2024-02-04T14:22:13;2.27;;;1.60;;
1024;SDS011;501;48.214;11.350;2024-02-04T14:24:39;4.77;;;1.10;;
1024;SDS011;501;48.214;11.350;2024-02-04T14:27:05;4.43;;;2.10;;
1024;SDS011;501;48.214;11.350;2024-02-04T14:29:30;2.80;;;1.63;;
1024;SDS011;501;48.214;11.350;2024-02-04T14:31:56;3.97;;;1.77;;
1024;SDS011;501;48.214;11.350;2024-02-04T14:34:22;4.60;;;1.70;;
1024;SDS011;501;48.214;11.350;2024-02-04T14:36:48;3.73;;;1.60;;
1024;SDS011;501;48.214;11.350;2024-02-04T14:39:14;3.63;;;1.10;;
1024;SDS011;501;48.214;11.350;2024-02-04T14:41:41;4.00;;;1.43;;
1024;SDS011;501;48.214;11.350;2024-02-04T14:44:06;5.57;;;1.40;;
1024;SDS011;501;48.214;11.350;2024-02-04T14:46:33;1.97;;;1.50;;
1024;SDS011;501;48.214;11.350;2024-02-04T14:49:01;2.23;;;1.37;;
1024;SDS011;501;48.214;11.350;2024-02-04T14:51:27;2.00;;;1.20;;
1024;SDS011;501;48.214;11.350;2024-02-04T14:53:53;2.47;;;1.57;;
1024;SDS011;501;48.214;11.350;2024-02-04T14:56:18;2.13;;;1.43;;
1024;SDS011;501;48.214;11.350;2024-02-04T14:58:44;5.67;;;1.47;;
1024;SDS011;501;48.214;11.350;2024-02-04T15:01:10;1.60;;;0.97;;
1024;SDS011;501;48.214;11.350;2024-02-04T15:03:35;2.13;;;1.50;;
1024;SDS011;501;48.214;11.350;2024-02-04T15:06:01;3.33;;;1.80;;
1024;SDS011;501;48.214;11.350;2024-02-04T15:08:26;2.10;;;1.77;;
1024;SDS011;501;48.214;11.350;2024-02-04T15:10:53;4.80;;;1.40;;
1024;SDS011;501;48.214;11.350;2024-02-04T15:13:19;4.83;;;1.53;;
1024;SDS011;501;48.214;11.350;2024-02-04T15:15:45;4.50;;;1.80;;
1024;SDS011;501;48.214;11.350;2024-02-04T15:18:11;3.00;;;1.80;;
1024;SDS011;501;48.214;11.350;2024-02-04T15:20:37;5.07;;;1.80;;
1024;SDS011;501;48.214;11.350;2024-02-04T15:23:03;2.50;;;1.37;;